Time;durP1;ratioP1;P1;durP2;ratioP2;P2;SDS_P1;SDS_P2;PMS_P1;PMS_P2;Temp;Humidity;BMP_temperature;BMP_pressure;BME280_temperature;BME280_humidity;BME280_pressure;Samples;Min_cycle;Max_cycle;Signal;HPM_P1;HPM_P2
2023/03/16 00:01:41;;;;;;;6.38;3.65;;;12.70;1.00;;;;;;5041552;28;20128;-68
2023/03/16 00:04:07;;;;;;;4.50;2.75;;;12.70;1.00;;;;;;5040742;28;20047;-67
2023/03/16 00:06:33;;;;;;;6.40;3.20;;;12.70;1.00;;;;;;5047251;28;20067;-67
2023/03/16 00:08:58;;;;;;;3.75;3.00;;;12.70;1.00;;;;;;5048027;28;20040;-67
2023/03/16 00:11:25;;;;;;;4.30;3.35;;;12.70;1.00;;;;;;5044313;28;20029;-68
2023/03/16 00:13:51;;;;;;;4.15;2.92;;;12.60;1.00;;;;;;5046294;28;20650;-66
2023/03/16 00:16:17;;;;;;;3.33;2.83;;;12.60;1.00;;;;;;5043732;28;20028;-67
2023/03/16 00:18:42;;;;;;;5.00;3.58;;;12.60;1.00;;;;;;5046842;28;20032;-67
2023/03/16 00:21:08;;;;;;;5.50;2.65;;;12.60;1.00;;;;;;5042353;28;20032;-68
2023/03/16 00:23:35;;;;;;;2.95;2.10;;;12.50;1.00;;;;;;5051453;28;20051;-68
2023/03/16 00:26:03;;;;;;;6.60;2.53;;;12.50;1.00;;;;;;5050958;28;20107;-68
2023/03/16 00:28:34;;;;;;;3.60;2.25;;;12.50;1.00;;;;;;5051873;28;20028;-68
2023/03/16 00:31:04;;;;;;;4.77;2.53;;;12.60;1.00;;;;;;5045032;28;20029;-68
2023/03/16 00:33:34;;;;;;;5.10;2.92;;;12.50;1.00;;;;;;5044446;28;20055;-68
2023/03/16 00:36:06;;;;;;;4.13;2.92;;;12.40;1.00;;;;;;5047479;28;20482;-67
2023/03/16 00:38:34;;;;;;;6.57;2.80;;;12.40;1.00;;;;;;5051723;28;20028;-67
2023/03/16 00:41:02;;;;;;;8.07;2.85;;;12.50;1.00;;;;;;5046275;28;20340;-68
2023/03/16 00:43:30;;;;;;;4.32;2.47;;;12.40;1.00;;;;;;5050066;28;20029;-68
2023/03/16 00:46:05;;;;;;;4.20;2.78;;;12.40;1.00;;;;;;5050044;28;20025;-68
2023/03/16 00:48:35;;;;;;;3.78;2.22;;;12.40;1.00;;;;;;5037602;28;20142;-67
2023/03/16 00:51:05;;;;;;;3.05;2.40;;;12.40;1.00;;;;;;5045270;28;20029;-68
2023/03/16 00:53:35;;;;;;;5.57;2.60;;;12.40;1.00;;;;;;5047862;28;20040;-67
2023/03/16 00:56:03;;;;;;;3.40;2.90;;;12.40;1.00;;;;;;5043104;28;20013;-67
2023/03/16 00:58:34;;;;;;;3.63;2.40;;;12.40;1.00;;;;;;5041919;28;20103;-68
2023/03/16 01:01:03;;;;;;;4.80;2.92;;;12.30;1.00;;;;;;5049353;28;20478;-67
2023/03/16 01:03:29;;;;;;;4.77;2.73;;;12.30;1.00;;;;;;5046969;28;20483;-67
2023/03/16 01:05:58;;;;;;;5.80;2.33;;;12.20;1.00;;;;;;5045662;28;20028;-68
2023/03/16 01:08:26;;;;;;;2.97;2.08;;;12.30;1.00;;;;;;5044700;28;20029;-67
2023/03/16 01:10:56;;;;;;;3.75;2.53;;;12.20;1.00;;;;;;5045528;28;20021;-67
2023/03/16 01:13:22;;;;;;;3.92;2.25;;;12.20;1.00;;;;;;5043572;28;20045;-67
2023/03/16 01:15:51;;;;;;;3.13;2.25;;;12.20;1.00;;;;;;5047547;28;20390;-67
2023/03/16 01:18:17;;;;;;;2.72;1.85;;;12.20;1.00;;;;;;5047730;28;20029;-68
2023/03/16 01:20:49;;;;;;;3.22;1.83;;;12.20;1.00;;;;;;5047123;28;20021;-67
2023/03/16 01:23:18;;;;;;;2.58;2.10;;;12.20;1.00;;;;;;5044692;28;20119;-67
2023/03/16 01:25:51;;;;;;;3.80;2.25;;;12.20;1.00;;;;;;5038439;28;20028;-67
2023/03/16 01:28:19;;;;;;;3.38;2.10;;;12.20;1.00;;;;;;5041629;28;20029;-67
2023/03/16 01:30:45;;;;;;;3.77;2.13;;;12.20;1.00;;;;;;5046867;28;20475;-68
2023/03/16 01:33:10;;;;;;;3.00;2.33;;;12.10;1.00;;;;;;5048552;28;20178;-67
2023/03/16 01:35:36;;;;;;;4.13;2.13;;;12.10;1.00;;;;;;5054737;28;20044;-68
2023/03/16 01:38:03;;;;;;;3.83;2.33;;;12.10;1.00;;;;;;5051349;28;20108;-68
2023/03/16 01:40:30;;;;;;;2.47;1.95;;;12.10;1.00;;;;;;5054294;28;20025;-67
2023/03/16 01:43:01;;;;;;;2.95;2.28;;;12.10;1.00;;;;;;5049854;28;20082;-67
2023/03/16 01:46:04;;;;;;;2.23;1.80;;;12.00;1.00;;;;;;5051638;28;20029;-67
2023/03/16 01:48:44;;;;;;;2.78;1.98;;;12.00;1.00;;;;;;5041435;28;20435;-67
2023/03/16 01:51:51;;;;;;;3.87;2.30;;;12.00;1.00;;;;;;5045770;28;20033;-67
2023/03/16 01:54:31;;;;;;;2.65;2.30;;;11.90;1.00;;;;;;5032228;28;20148;-67
2023/03/16 01:57:07;;;;;;;3.53;2.27;;;11.90;1.00;;;;;;5033945;28;20493;-67
2023/03/16 01:59:44;;;;;;;4.33;2.87;;;11.80;1.00;;;;;;5035059;28;20033;-67
2023/03/16 02:02:12;;;;;;;4.72;2.83;;;11.90;1.00;;;;;;5049743;28;20026;-67
2023/03/16 02:04:47;;;;;;;4.67;2.80;;;11.90;1.00;;;;;;5043795;28;20116;-67
2023/03/16 02:07:16;;;;;;;3.17;2.10;;;11.90;1.00;;;;;;5045657;28;20029;-67
2023/03/16 02:09:48;;;;;;;4.82;2.50;;;11.80;1.00;;;;;;5050046;28;20033;-67
2023/03/16 02:12:16;;;;;;;4.50;2.70;;;11.80;1.00;;;;;;5052612;28;20029;-67
2023/03/16 02:14:50;;;;;;;5.75;2.60;;;11.80;1.00;;;;;;5048868;28;20055;-68
2023/03/16 02:17:22;;;;;;;2.50;2.22;;;11.80;1.00;;;;;;5046097;28;20112;-67
2023/03/16 02:20:08;;;;;;;4.07;2.50;;;11.80;1.00;;;;;;5046341;28;20480;-68
2023/03/16 02:22:38;;;;;;;2.60;2.13;;;11.80;1.00;;;;;;5054006;28;20167;-67
2023/03/16 02:25:04;;;;;;;4.78;2.63;;;11.70;1.00;;;;;;5047735;28;21982;-68
2023/03/16 02:27:53;;;;;;;4.35;2.40;;;11.70;1.00;;;;;;5040280;28;20104;-67
2023/03/16 02:30:20;;;;;;;4.75;2.30;;;11.70;1.00;;;;;;5027975;28;20040;-68
2023/03/16 02:32:50;;;;;;;4.25;3.00;;;11.70;1.00;;;;;;5047842;28;20056;-68
2023/03/16 02:35:16;;;;;;;3.47;2.40;;;11.70;1.00;;;;;;5051889;28;20029;-68
2023/03/16 02:37:42;;;;;;;4.40;2.60;;;11.70;1.00;;;;;;5042445;28;20033;-68
2023/03/16 02:40:35;;;;;;;4.80;2.60;;;11.60;1.00;;;;;;5051861;28;20417;-68
2023/03/16 02:43:15;;;;;;;4.27;2.60;;;11.60;1.00;;;;;;5050166;28;20037;-68
2023/03/16 02:45:54;;;;;;;4.75;1.88;;;11.60;1.00;;;;;;5045046;28;20029;-68
2023/03/16 02:48:26;;;;;;;5.50;2.63;;;11.50;1.00;;;;;;5041271;28;20025;-68
2023/03/16 02:50:53;;;;;;;4.17;2.30;;;11.40;1.00;;;;;;5054814;28;20048;-68
2023/03/16 02:53:19;;;;;;;3.83;2.23;;;11.40;1.00;;;;;;5051039;28;20029;-68
2023/03/16 02:55:45;;;;;;;3.97;2.13;;;11.50;1.00;;;;;;5042157;28;20475;-68
2023/03/16 02:58:12;;;;;;;4.80;2.50;;;11.40;1.00;;;;;;5039159;28;20039;-69
2023/03/16 03:00:37;;;;;;;4.13;2.28;;;11.40;1.00;;;;;;5040372;28;20082;-68
2023/03/16 03:03:05;;;;;;;2.90;2.10;;;11.40;1.00;;;;;;5036807;28;20041;-68
2023/03/16 03:05:30;;;;;;;3.27;2.43;;;11.40;1.00;;;;;;5049783;28;20429;-68
2023/03/16 03:07:56;;;;;;;3.90;2.27;;;11.40;1.00;;;;;;5046173;28;20021;-68
2023/03/16 03:10:22;;;;;;;3.27;1.90;;;11.40;1.00;;;;;;5042190;28;20063;-68
2023/03/16 03:12:48;;;;;;;3.60;2.13;;;11.40;1.00;;;;;;5051613;28;20037;-68
2023/03/16 03:15:15;;;;;;;4.38;2.28;;;11.40;1.00;;;;;;5049989;28;20044;-68
2023/03/16 03:17:42;;;;;;;3.70;1.73;;;11.40;1.00;;;;;;5047201;28;20036;-68
2023/03/16 03:20:16;;;;;;;2.57;1.67;;;11.30;1.00;;;;;;5047623;28;20489;-68
2023/03/16 03:22:46;;;;;;;2.30;1.58;;;11.30;1.00;;;;;;5050066;28;20051;-68
2023/03/16 03:25:17;;;;;;;2.07;1.47;;;11.30;1.00;;;;;;5038405;28;20121;-68
2023/03/16 03:27:43;;;;;;;2.90;1.23;;;11.30;1.00;;;;;;5036095;28;20474;-68
2023/03/16 03:30:11;;;;;;;1.97;1.20;;;11.30;1.00;;;;;;5042039;28;20112;-67
2023/03/16 03:32:38;;;;;;;1.57;1.10;;;11.30;1.00;;;;;;5034020;28;20029;-68
2023/03/16 03:35:04;;;;;;;1.23;1.10;;;11.30;1.00;;;;;;5046931;28;20036;-68
2023/03/16 03:37:30;;;;;;;2.10;0.97;;;11.30;1.00;;;;;;5038177;28;20026;-68
2023/03/16 03:39:56;;;;;;;1.93;1.10;;;11.30;1.00;;;;;;5042957;28;20040;-68
2023/03/16 03:42:24;;;;;;;4.23;1.47;;;11.20;1.00;;;;;;5040958;28;20471;-68
2023/03/16 03:44:51;;;;;;;1.53;1.10;;;11.30;1.00;;;;;;5041910;28;20024;-68
2023/03/16 03:47:18;;;;;;;0.87;0.60;;;11.20;1.00;;;;;;5046598;28;20033;-68
2023/03/16 03:49:44;;;;;;;2.27;0.93;;;11.20;1.00;;;;;;5044726;28;20024;-68
2023/03/16 03:52:10;;;;;;;1.30;0.90;;;11.20;1.00;;;;;;5035483;28;20030;-68
2023/03/16 03:54:36;;;;;;;3.10;1.43;;;11.20;1.00;;;;;;5033774;28;20041;-68
2023/03/16 03:57:02;;;;;;;3.53;1.30;;;11.20;1.00;;;;;;5040849;28;20402;-68
2023/03/16 03:59:27;;;;;;;2.20;1.23;;;11.20;1.00;;;;;;5019276;28;20035;-68
2023/03/16 04:01:53;;;;;;;2.33;1.10;;;11.20;1.00;;;;;;5050585;28;20033;-68
2023/03/16 04:04:19;;;;;;;3.77;1.20;;;11.20;1.00;;;;;;5050441;28;20025;-67
2023/03/16 04:06:46;;;;;;;4.27;1.37;;;11.10;1.00;;;;;;5049328;28;20496;-68
2023/03/16 04:09:12;;;;;;;3.37;1.50;;;11.10;1.00;;;;;;5049525;28;20035;-67
2023/03/16 04:11:38;;;;;;;3.40;1.30;;;11.10;1.00;;;;;;5050827;28;20024;-68
2023/03/16 04:14:04;;;;;;;1.87;1.07;;;11.10;1.00;;;;;;5050506;28;20045;-68
2023/03/16 04:16:30;;;;;;;3.07;1.50;;;11.10;1.00;;;;;;5049157;28;20047;-68
2023/03/16 04:18:56;;;;;;;4.07;1.40;;;11.10;1.00;;;;;;5045414;28;20029;-68
2023/03/16 04:21:22;;;;;;;2.70;1.50;;;11.10;1.00;;;;;;5043265;28;20755;-68
2023/03/16 04:23:53;;;;;;;2.53;1.60;;;11.10;1.00;;;;;;5043991;28;20036;-68
2023/03/16 04:26:21;;;;;;;2.53;1.30;;;11.00;1.00;;;;;;5046098;28;20056;-68
2023/03/16 04:28:47;;;;;;;2.37;1.20;;;11.00;1.00;;;;;;5038188;28;20029;-68
2023/03/16 04:31:13;;;;;;;3.83;1.07;;;11.00;1.00;;;;;;5041289;28;20034;-68
2023/03/16 04:33:41;;;;;;;1.57;1.20;;;11.00;1.00;;;;;;5045733;28;20026;-68
2023/03/16 04:36:07;;;;;;;1.93;1.30;;;11.00;1.00;;;;;;5043550;28;20482;-68
2023/03/16 04:38:33;;;;;;;1.90;1.43;;;11.00;1.00;;;;;;5039405;28;20033;-68
2023/03/16 04:41:17;;;;;;;2.93;1.70;;;10.90;1.00;;;;;;5047360;28;20438;-68
2023/03/16 04:43:43;;;;;;;3.20;0.97;;;11.00;1.00;;;;;;5041191;28;20032;-68
2023/03/16 04:46:09;;;;;;;3.03;1.40;;;10.90;1.00;;;;;;5051057;28;20021;-68
2023/03/16 04:48:35;;;;;;;1.97;1.27;;;10.90;1.00;;;;;;5046529;28;20033;-68
2023/03/16 04:51:02;;;;;;;2.10;1.30;;;10.80;1.00;;;;;;5044885;28;20036;-68
2023/03/16 04:53:30;;;;;;;3.90;1.97;;;10.90;1.00;;;;;;5044440;28;20052;-68
2023/03/16 04:55:57;;;;;;;2.07;1.33;;;10.80;1.00;;;;;;5045637;28;20055;-68
2023/03/16 04:58:23;;;;;;;3.03;1.30;;;10.80;1.00;;;;;;5053022;28;20056;-68
2023/03/16 05:00:51;;;;;;;1.80;1.30;;;10.80;1.00;;;;;;5051058;28;20363;-69
2023/03/16 05:03:16;;;;;;;2.63;1.90;;;10.80;1.00;;;;;;5053211;28;20382;-68
2023/03/16 05:05:44;;;;;;;2.63;1.60;;;10.80;1.00;;;;;;5050361;28;20021;-68
2023/03/16 05:08:11;;;;;;;5.37;1.90;;;10.80;1.00;;;;;;5038653;28;20032;-69
2023/03/16 05:10:37;;;;;;;6.27;1.80;;;10.90;1.00;;;;;;5050938;28;20033;-68
2023/03/16 05:13:03;;;;;;;2.10;1.90;;;10.90;1.00;;;;;;5043384;28;20068;-68
2023/03/16 05:15:30;;;;;;;4.07;1.67;;;10.80;1.00;;;;;;5037148;28;20057;-69
2023/03/16 05:17:56;;;;;;;3.50;1.60;;;10.90;1.00;;;;;;5045634;28;20364;-68
2023/03/16 05:20:23;;;;;;;3.13;1.90;;;10.80;1.00;;;;;;5037078;28;20033;-68
2023/03/16 05:22:49;;;;;;;2.57;1.77;;;10.80;1.00;;;;;;5048833;28;20534;-68
2023/03/16 05:25:16;;;;;;;5.73;1.97;;;10.80;1.00;;;;;;5050659;28;20025;-68
2023/03/16 05:27:43;;;;;;;3.27;2.10;;;10.80;1.00;;;;;;5051139;28;20449;-68
2023/03/16 05:30:11;;;;;;;4.80;2.27;;;10.70;1.00;;;;;;5050688;28;20068;-68
2023/03/16 05:32:37;;;;;;;3.17;2.13;;;10.70;1.00;;;;;;5051393;28;20547;-68
2023/03/16 05:35:04;;;;;;;2.77;2.10;;;10.70;1.00;;;;;;5049680;28;20098;-68
2023/03/16 05:37:30;;;;;;;2.13;1.43;;;10.70;1.00;;;;;;5052794;28;20056;-68
2023/03/16 05:39:57;;;;;;;4.80;2.13;;;10.70;1.00;;;;;;5050952;28;20079;-68
2023/03/16 05:42:25;;;;;;;4.20;2.10;;;10.70;1.00;;;;;;5037223;28;20425;-68
2023/03/16 05:44:52;;;;;;;4.90;1.80;;;10.70;1.00;;;;;;5046654;28;20049;-68
2023/03/16 05:47:18;;;;;;;2.00;1.53;;;10.60;1.00;;;;;;5049781;28;20423;-68
2023/03/16 05:49:44;;;;;;;3.50;2.40;;;10.60;1.00;;;;;;5042680;28;20501;-68
2023/03/16 05:52:10;;;;;;;3.53;1.97;;;10.60;1.00;;;;;;5048819;28;20029;-68
2023/03/16 05:54:36;;;;;;;2.80;2.43;;;10.60;1.00;;;;;;5049747;28;20041;-68
2023/03/16 05:57:02;;;;;;;2.00;1.80;;;10.50;1.00;;;;;;5049745;28;20033;-69
2023/03/16 05:59:27;;;;;;;5.43;2.20;;;10.50;1.00;;;;;;5050710;28;20060;-69
2023/03/16 06:01:53;;;;;;;3.77;2.40;;;10.50;1.00;;;;;;5041326;28;20068;-69
2023/03/16 06:04:18;;;;;;;4.93;2.70;;;10.60;1.00;;;;;;5050314;28;20017;-68
2023/03/16 06:06:44;;;;;;;4.00;2.40;;;10.50;1.00;;;;;;5052127;28;20079;-68
2023/03/16 06:09:10;;;;;;;4.87;2.67;;;10.50;1.00;;;;;;5035572;28;20025;-68
2023/03/16 06:11:35;;;;;;;5.50;2.93;;;10.50;1.00;;;;;;5038853;28;20083;-68
2023/03/16 06:14:01;;;;;;;4.07;2.67;;;10.50;1.00;;;;;;5052077;28;20604;-68
2023/03/16 06:16:27;;;;;;;4.87;3.33;;;10.50;1.00;;;;;;5045507;28;20024;-68
2023/03/16 06:18:53;;;;;;;5.47;3.60;;;10.50;1.00;;;;;;5053621;28;20033;-68
2023/03/16 06:21:18;;;;;;;4.33;3.13;;;10.50;1.00;;;;;;5044313;28;20029;-68
2023/03/16 06:23:44;;;;;;;4.67;2.33;;;10.60;1.00;;;;;;5052162;28;20094;-68
2023/03/16 06:26:10;;;;;;;3.57;2.60;;;10.60;1.00;;;;;;5055651;28;20490;-68
2023/03/16 06:28:35;;;;;;;5.90;2.70;;;10.60;1.00;;;;;;5054433;28;20544;-68
2023/03/16 06:31:02;;;;;;;4.20;2.70;;;10.60;1.00;;;;;;5052638;28;20036;-68
2023/03/16 06:33:28;;;;;;;3.87;2.60;;;10.60;1.00;;;;;;5055470;28;20021;-68
2023/03/16 06:35:53;;;;;;;4.63;2.60;;;10.70;1.00;;;;;;5052921;28;20037;-68
2023/03/16 06:38:19;;;;;;;3.63;2.60;;;10.60;1.00;;;;;;5040448;28;20028;-67
2023/03/16 06:40:45;;;;;;;3.20;2.20;;;10.60;1.00;;;;;;5048531;28;20096;-68
2023/03/16 06:43:11;;;;;;;4.03;2.40;;;10.60;1.00;;;;;;5030627;28;20025;-68
2023/03/16 06:45:36;;;;;;;2.93;2.13;;;10.60;1.00;;;;;;5054819;28;20068;-68
2023/03/16 06:48:02;;;;;;;3.03;2.40;;;10.60;1.00;;;;;;5046114;28;20489;-68
2023/03/16 06:50:28;;;;;;;3.47;1.80;;;10.70;1.00;;;;;;5046937;28;20516;-68
2023/03/16 06:52:53;;;;;;;2.50;1.80;;;10.70;1.00;;;;;;5053357;28;20025;-68
2023/03/16 06:55:19;;;;;;;3.27;1.73;;;10.70;1.00;;;;;;5039768;28;20076;-68
2023/03/16 06:57:45;;;;;;;4.97;2.00;;;10.70;1.00;;;;;;5055250;28;20083;-68
2023/03/16 07:00:14;;;;;;;4.63;2.10;;;10.70;1.00;;;;;;5054370;28;20048;-67
2023/03/16 07:02:41;;;;;;;5.93;2.43;;;10.70;1.00;;;;;;5055122;28;20118;-68
2023/03/16 07:05:09;;;;;;;2.13;1.80;;;10.70;1.00;;;;;;5052549;28;20052;-68
2023/03/16 07:07:35;;;;;;;2.80;2.27;;;10.80;1.00;;;;;;5055059;28;20017;-68
2023/03/16 07:10:01;;;;;;;5.37;2.23;;;10.80;1.00;;;;;;5041557;28;20017;-69
2023/03/16 07:12:27;;;;;;;3.80;1.90;;;10.80;1.00;;;;;;5043347;28;20092;-69
2023/03/16 07:14:52;;;;;;;3.93;2.17;;;10.80;1.00;;;;;;5045615;28;20049;-68
2023/03/16 07:17:18;;;;;;;3.20;1.63;;;10.90;1.00;;;;;;5051539;28;20105;-68
2023/03/16 07:19:43;;;;;;;3.87;1.83;;;10.90;1.00;;;;;;5043470;28;20382;-69
2023/03/16 07:22:09;;;;;;;5.10;2.13;;;10.90;1.00;;;;;;5040269;28;20028;-68
2023/03/16 07:24:35;;;;;;;4.33;1.93;;;10.90;1.00;;;;;;5054253;28;20037;-68
2023/03/16 07:27:00;;;;;;;2.53;1.60;;;10.90;1.00;;;;;;5051748;28;20032;-69
2023/03/16 07:29:27;;;;;;;3.57;1.80;;;11.00;1.00;;;;;;5054922;28;20463;-68
2023/03/16 07:31:53;;;;;;;2.67;1.60;;;11.00;1.00;;;;;;5054032;28;20029;-69
2023/03/16 07:34:20;;;;;;;3.20;1.70;;;11.00;1.00;;;;;;5053046;28;20032;-68
2023/03/16 07:36:47;;;;;;;3.07;1.63;;;11.00;1.00;;;;;;5054932;28;20020;-69
2023/03/16 07:39:16;;;;;;;4.00;1.80;;;11.00;1.00;;;;;;5051796;28;20029;-68
2023/03/16 07:41:42;;;;;;;2.17;1.00;;;11.00;1.00;;;;;;5054537;28;20037;-69
2023/03/16 07:44:07;;;;;;;3.63;1.20;;;11.00;1.00;;;;;;5051805;28;20055;-69
2023/03/16 07:46:33;;;;;;;3.87;1.50;;;11.00;1.00;;;;;;5053909;28;20028;-68
2023/03/16 07:48:59;;;;;;;2.97;1.80;;;11.10;1.00;;;;;;5051310;28;20047;-70
2023/03/16 07:51:24;;;;;;;2.70;1.00;;;11.10;1.00;;;;;;5052316;28;20458;-70
2023/03/16 07:53:50;;;;;;;3.17;0.90;;;11.00;1.00;;;;;;5051866;28;20029;-71
2023/03/16 07:56:15;;;;;;;6.03;1.40;;;11.00;1.00;;;;;;5051692;28;20045;-70
2023/03/16 07:58:41;;;;;;;2.57;1.00;;;11.00;1.00;;;;;;5046740;28;20227;-66
2023/03/16 08:01:09;;;;;;;3.23;1.40;;;11.00;1.00;;;;;;5036521;28;20037;-59
2023/03/16 08:03:35;;;;;;;6.30;1.70;;;11.00;1.00;;;;;;5043806;28;20382;-65
2023/03/16 08:06:01;;;;;;;6.13;1.67;;;11.10;1.00;;;;;;5052781;28;20103;-65
2023/03/16 08:08:26;;;;;;;8.30;1.70;;;11.10;1.00;;;;;;5053861;28;20036;-66
2023/03/16 08:10:52;;;;;;;2.50;1.30;;;11.20;1.00;;;;;;5051125;28;20123;-64
2023/03/16 08:13:18;;;;;;;3.13;1.20;;;11.20;1.00;;;;;;5048600;28;20112;-63
2023/03/16 08:15:54;;;;;;;5.03;1.40;;;11.20;1.00;;;;;;5051770;28;20474;-63
2023/03/16 08:18:22;;;;;;;1.87;1.07;;;11.20;1.00;;;;;;5049257;28;20021;-64
2023/03/16 08:20:48;;;;;;;7.60;1.40;;;11.30;1.00;;;;;;5053456;28;20025;-62
2023/03/16 08:23:14;;;;;;;3.93;1.23;;;11.30;1.00;;;;;;5052475;28;20027;-61
2023/03/16 08:25:40;;;;;;;3.33;1.10;;;11.30;1.00;;;;;;5045103;28;20033;-54
2023/03/16 08:28:07;;;;;;;3.37;1.07;;;11.30;1.00;;;;;;5046861;28;20022;-63
2023/03/16 08:30:36;;;;;;;2.17;1.20;;;11.30;1.00;;;;;;5044802;28;20514;-63
2023/03/16 08:33:03;;;;;;;1.58;1.08;;;11.40;1.00;;;;;;5049199;28;20025;-63
2023/03/16 08:35:29;;;;;;;4.13;1.43;;;11.40;1.00;;;;;;5053102;28;20393;-63
2023/03/16 08:37:55;;;;;;;5.03;2.90;;;11.40;1.00;;;;;;5044392;28;20032;-71
2023/03/16 08:40:21;;;;;;;2.07;1.20;;;11.40;1.00;;;;;;5047991;28;20351;-67
2023/03/16 08:42:49;;;;;;;4.27;1.23;;;11.50;1.00;;;;;;5054302;28;20025;-63
2023/03/16 08:45:16;;;;;;;3.83;1.30;;;11.50;1.00;;;;;;5051289;28;20013;-64
2023/03/16 08:47:42;;;;;;;3.73;1.97;;;11.50;1.00;;;;;;5048314;28;20025;-59
2023/03/16 08:50:11;;;;;;;3.33;1.23;;;11.50;1.00;;;;;;5050690;28;20433;-59
2023/03/16 08:52:37;;;;;;;3.40;1.90;;;11.50;1.00;;;;;;5040776;28;20022;-59
2023/03/16 08:55:05;;;;;;;2.90;1.47;;;11.50;1.00;;;;;;5043750;28;20040;-59
2023/03/16 08:57:33;;;;;;;3.57;1.57;;;11.60;1.00;;;;;;5051815;28;20061;-63
2023/03/16 08:59:59;;;;;;;2.93;1.80;;;11.70;1.00;;;;;;5045750;28;20382;-59
2023/03/16 09:02:25;;;;;;;2.65;1.75;;;11.70;1.00;;;;;;5050014;28;20497;-60
2023/03/16 09:04:51;;;;;;;1.63;1.10;;;11.80;1.00;;;;;;5050449;28;20025;-61
2023/03/16 09:07:17;;;;;;;2.88;1.48;;;11.80;1.00;;;;;;5052777;28;20394;-66
2023/03/16 09:09:44;;;;;;;3.80;1.77;;;11.90;1.00;;;;;;5046977;28;20029;-63
2023/03/16 09:12:11;;;;;;;2.22;1.70;;;11.90;1.00;;;;;;5053048;28;20017;-63
2023/03/16 09:14:37;;;;;;;2.13;1.65;;;11.90;1.00;;;;;;5042228;28;20064;-50
2023/03/16 09:17:04;;;;;;;3.43;1.33;;;12.00;1.00;;;;;;5048984;28;21005;-66
2023/03/16 09:19:32;;;;;;;3.40;2.00;;;12.00;1.00;;;;;;5046448;28;20574;-50
2023/03/16 09:21:58;;;;;;;2.88;1.60;;;12.00;1.00;;;;;;5035371;28;20024;-61
2023/03/16 09:24:24;;;;;;;1.57;1.40;;;12.00;1.00;;;;;;5036492;28;20030;-61
2023/03/16 09:26:50;;;;;;;4.38;2.08;;;12.10;1.00;;;;;;5042495;28;20037;-59
2023/03/16 09:29:17;;;;;;;5.53;1.70;;;12.10;1.00;;;;;;5048245;28;20029;-61
2023/03/16 09:31:44;;;;;;;2.55;1.60;;;12.10;1.00;;;;;;5036715;28;20548;-61
2023/03/16 09:34:10;;;;;;;4.90;1.60;;;12.20;1.00;;;;;;5042779;28;20037;-62
2023/03/16 09:36:36;;;;;;;6.57;4.90;;;12.20;1.00;;;;;;5050053;28;20095;-61
2023/03/16 09:39:02;;;;;;;2.53;1.80;;;12.30;1.00;;;;;;5038524;28;20547;-62
2023/03/16 09:41:47;;;;;;;5.50;2.42;;;12.30;1.00;;;;;;5048246;28;20441;-62
2023/03/16 09:44:45;;;;;;;5.65;2.08;;;12.40;1.00;;;;;;5045093;28;20107;-61
2023/03/16 09:47:12;;;;;;;7.05;3.60;;;12.40;1.00;;;;;;5038195;28;20116;-71
2023/03/16 09:49:45;;;;;;;3.45;2.20;;;12.50;1.00;;;;;;5042773;28;20025;-57
2023/03/16 09:52:38;;;;;;;4.10;3.22;;;12.50;1.00;;;;;;5042572;28;20386;-60
2023/03/16 09:55:26;;;;;;;6.25;2.70;;;12.50;1.00;;;;;;5051990;28;20049;-62
2023/03/16 09:57:52;;;;;;;3.63;1.40;;;12.60;1.00;;;;;;5042909;28;20034;-60
2023/03/16 10:00:30;;;;;;;2.90;1.65;;;12.60;1.00;;;;;;5050670;28;20032;-59
2023/03/16 10:03:14;;;;;;;2.50;1.70;;;12.60;1.00;;;;;;5051142;28;20024;-59
2023/03/16 10:05:40;;;;;;;2.55;2.00;;;12.70;1.00;;;;;;5049136;28;20033;-60
2023/03/16 10:08:24;;;;;;;3.15;1.90;;;12.70;1.00;;;;;;5052381;28;20099;-59
2023/03/16 10:11:14;;;;;;;3.35;1.77;;;12.80;1.00;;;;;;5052423;28;20397;-62
2023/03/16 10:13:47;;;;;;;4.13;1.60;;;12.90;1.00;;;;;;5045799;28;20047;-63
2023/03/16 10:16:22;;;;;;;6.55;2.13;;;12.90;1.00;;;;;;5048345;28;20044;-56
2023/03/16 10:18:49;;;;;;;;;;;13.00;1.00;;;;;;5047195;28;20156;-59
2023/03/16 10:21:18;;;;;;;3.65;1.60;;;13.00;1.00;;;;;;5050758;28;20350;-55
2023/03/16 10:23:48;;;;;;;4.78;1.75;;;13.00;1.00;;;;;;5052263;28;20048;-56
2023/03/16 10:26:39;;;;;;;3.50;1.50;;;13.00;1.00;;;;;;5048096;28;20099;-59
2023/03/16 10:29:13;;;;;;;3.00;1.80;;;13.10;1.00;;;;;;5045151;28;20036;-60
2023/03/16 10:31:40;;;;;;;6.33;2.07;;;13.20;1.00;;;;;;5051066;28;20488;-53
2023/03/16 10:34:07;;;;;;;2.92;2.00;;;13.20;1.00;;;;;;5043337;28;20021;-50
2023/03/16 10:36:35;;;;;;;5.85;2.42;;;13.20;1.00;;;;;;5046639;28;20029;-53
2023/03/16 10:39:10;;;;;;;4.63;2.13;;;13.30;1.00;;;;;;5051315;28;20470;-53
2023/03/16 10:41:42;;;;;;;4.40;1.70;;;13.40;1.00;;;;;;5050264;28;20375;-51
2023/03/16 10:44:15;;;;;;;3.17;1.92;;;13.40;1.00;;;;;;5054634;28;20026;-53
2023/03/16 10:46:49;;;;;;;2.63;2.05;;;13.40;1.00;;;;;;5051697;28;20025;-51
2023/03/16 10:49:35;;;;;;;2.28;2.08;;;13.50;1.00;;;;;;5053327;28;20036;-56
2023/03/16 10:52:12;;;;;;;4.30;2.53;;;13.50;1.00;;;;;;5048488;28;20087;-51
2023/03/16 10:54:39;;;;;;;4.85;1.90;;;13.40;1.00;;;;;;5048078;28;20040;-56
2023/03/16 10:57:24;;;;;;;3.03;2.35;;;13.50;1.00;;;;;;5055424;28;20036;-56
2023/03/16 10:59:56;;;;;;;4.15;2.95;;;13.50;1.00;;;;;;5055198;28;20033;-57
2023/03/16 11:02:30;;;;;;;5.60;3.33;;;13.50;1.00;;;;;;5052660;28;20112;-67
2023/03/16 11:04:56;;;;;;;2.85;1.98;;;13.60;1.00;;;;;;5053220;28;20108;-66
2023/03/16 11:07:24;;;;;;;5.45;2.58;;;13.60;1.00;;;;;;5042330;28;20136;-61
2023/03/16 11:09:54;;;;;;;4.80;2.47;;;13.70;1.00;;;;;;5050895;28;20017;-64
2023/03/16 11:12:24;;;;;;;2.63;1.77;;;13.80;1.00;;;;;;5044544;28;20038;-67
2023/03/16 11:14:50;;;;;;;4.22;1.75;;;13.90;1.00;;;;;;5044863;28;20107;-60
2023/03/16 11:17:24;;;;;;;3.13;1.90;;;14.00;1.00;;;;;;5043565;28;20165;-59
2023/03/16 11:19:50;;;;;;;2.67;2.15;;;14.00;1.00;;;;;;5042490;28;20036;-56
2023/03/16 11:22:19;;;;;;;4.07;3.05;;;14.10;1.00;;;;;;5043654;28;20029;-59
2023/03/16 11:24:59;;;;;;;4.38;2.10;;;14.10;1.00;;;;;;5043626;28;20029;-58
2023/03/16 11:27:55;;;;;;;2.63;2.10;;;14.20;1.00;;;;;;5047574;28;20029;-54
2023/03/16 11:30:23;;;;;;;3.63;2.10;;;14.20;1.00;;;;;;5034925;28;20045;-54
2023/03/16 11:32:52;;;;;;;2.70;2.30;;;14.20;1.00;;;;;;5053090;28;20025;-51
2023/03/16 11:35:29;;;;;;;3.40;2.35;;;14.40;1.00;;;;;;5052726;28;20025;-54
2023/03/16 11:38:19;;;;;;;2.97;2.35;;;14.40;1.00;;;;;;5046357;28;20413;-55
2023/03/16 11:40:59;;;;;;;3.22;2.42;;;14.50;1.00;;;;;;5048331;28;20116;-51
2023/03/16 11:43:51;;;;;;;4.30;2.45;;;14.50;1.00;;;;;;5046461;28;20041;-50
2023/03/16 11:46:21;;;;;;;5.95;2.58;;;14.60;1.00;;;;;;5050262;28;20022;-53
2023/03/16 11:48:55;;;;;;;10.98;3.05;;;14.70;1.00;;;;;;5037842;28;20037;-64
2023/03/16 11:51:43;;;;;;;3.55;2.50;;;14.70;1.00;;;;;;5054274;28;20441;-64
2023/03/16 11:54:12;;;;;;;4.72;2.55;;;14.80;1.00;;;;;;5053151;28;20082;-67
2023/03/16 11:56:46;;;;;;;8.02;2.50;;;14.90;1.00;;;;;;5053619;28;20025;-59
2023/03/16 11:59:27;;;;;;;4.88;3.60;;;15.00;1.00;;;;;;5041598;28;20021;-60
2023/03/16 12:02:07;;;;;;;7.75;3.67;;;15.10;1.00;;;;;;5053894;28;20056;-61
2023/03/16 12:04:51;;;;;;;3.78;2.80;;;15.10;1.00;;;;;;5053332;28;20116;-61
2023/03/16 12:07:38;;;;;;;4.55;3.22;;;15.20;1.00;;;;;;5034268;28;20105;-64
2023/03/16 12:10:28;;;;;;;6.03;3.95;;;15.30;1.00;;;;;;5041562;28;20478;-62
2023/03/16 12:13:18;;;;;;;5.93;3.05;;;15.40;1.00;;;;;;5051277;28;20033;-62
2023/03/16 12:15:48;;;;;;;3.80;3.40;;;15.50;1.00;;;;;;5050519;28;20029;-62
2023/03/16 12:18:22;;;;;;;5.63;3.45;;;15.60;1.00;;;;;;5053791;28;20037;-62
2023/03/16 12:21:13;;;;;;;4.15;3.53;;;15.80;1.00;;;;;;5053061;28;20382;-62
2023/03/16 12:23:55;;;;;;;7.10;3.28;;;15.90;1.00;;;;;;5043288;28;20139;-60
2023/03/16 12:26:25;;;;;;;4.63;3.00;;;16.00;1.00;;;;;;5044327;28;20372;-50
2023/03/16 12:28:53;;;;;;;4.18;3.78;;;15.90;1.00;;;;;;5043386;28;20478;-48
2023/03/16 12:31:20;;;;;;;5.32;2.95;;;16.00;1.00;;;;;;5047588;28;20385;-52
2023/03/16 12:33:52;;;;;;;7.20;4.85;;;16.10;1.00;;;;;;5053364;28;20025;-51
2023/03/16 12:36:51;;;;;;;6.18;4.68;;;16.30;1.00;;;;;;5047602;28;20036;-61
2023/03/16 12:39:44;;;;;;;10.60;6.18;;;16.50;1.00;;;;;;5047415;28;20022;-63
2023/03/16 12:42:23;;;;;;;6.68;4.53;;;16.50;1.00;;;;;;5043011;28;20478;-59
2023/03/16 12:44:56;;;;;;;7.30;4.40;;;16.80;1.00;;;;;;5040622;28;20564;-58
2023/03/16 12:47:41;;;;;;;6.72;4.10;;;17.00;1.00;;;;;;5046711;28;20038;-51
2023/03/16 12:50:14;;;;;;;5.13;4.35;;;17.20;1.00;;;;;;5051871;28;20053;-48
2023/03/16 12:52:46;;;;;;;7.70;4.10;;;17.40;1.00;;;;;;5051359;28;20028;-47
2023/03/16 12:55:18;;;;;;;6.10;4.18;;;18.50;1.00;;;;;;5053223;28;20037;-52
2023/03/16 12:57:47;;;;;;;8.05;5.00;;;22.50;1.00;;;;;;5050426;28;20100;-46
2023/03/16 13:00:15;;;;;;;6.03;4.20;;;27.90;99.90;;;;;;5047999;28;20093;-59
2023/03/16 13:02:55;;;;;;;6.43;4.88;;;31.40;99.90;;;;;;5042950;28;20066;-49
2023/03/16 13:05:35;;;;;;;11.95;4.63;;;33.50;99.90;;;;;;5051010;28;20032;-49
2023/03/16 13:08:10;;;;;;;8.98;4.85;;;34.60;99.90;;;;;;5044065;28;20036;-58
2023/03/16 13:10:37;;;;;;;5.68;4.03;;;35.30;99.90;;;;;;5045397;28;20108;-54
2023/03/16 13:13:15;;;;;;;5.47;4.80;;;35.40;99.90;;;;;;5051576;28;20098;-53